createdAt,value
2022-10-23T00:00:28.264Z,15.00
2022-10-23T00:02:31.438Z,14.98
2022-10-23T00:04:34.486Z,14.91
2022-10-23T00:06:37.789Z,14.84
2022-10-23T00:08:40.935Z,14.87
2022-10-23T00:10:44.610Z,14.80
2022-10-23T00:12:49.393Z,14.79
2022-10-23T00:14:52.456Z,14.78
2022-10-23T00:16:55.535Z,14.80
2022-10-23T00:18:58.583Z,14.76
2022-10-23T00:21:01.731Z,14.74
2022-10-23T00:23:04.947Z,14.68
2022-10-23T00:25:08.895Z,14.57
2022-10-23T00:27:11.964Z,14.57
2022-10-23T00:29:16.398Z,14.64
2022-10-23T00:31:19.838Z,14.98
2022-10-23T00:33:22.834Z,15.21
2022-10-23T00:35:25.883Z,15.38
2022-10-23T00:37:29.042Z,15.48
2022-10-23T00:39:32.091Z,15.27
2022-10-23T00:41:35.381Z,15.10
2022-10-23T00:43:53.603Z,14.95
2022-10-23T00:45:58.217Z,14.84
2022-10-23T00:48:01.810Z,14.79
2022-10-23T00:50:24.419Z,14.77
2022-10-23T00:52:30.754Z,14.76
2022-10-23T00:54:38.078Z,14.69
2022-10-23T00:56:44.821Z,14.65
2022-10-23T00:58:48.210Z,14.57
2022-10-23T01:00:53.516Z,14.35
2022-10-23T01:02:58.372Z,14.48
2022-10-23T01:05:01.831Z,14.43
2022-10-23T01:07:12.419Z,14.27
2022-10-23T01:09:23.721Z,14.38
2022-10-23T01:11:35.471Z,14.36
2022-10-23T01:13:45.824Z,14.32
2022-10-23T01:15:54.556Z,14.25
2022-10-23T01:18:05.410Z,14.26
2022-10-23T01:20:20.598Z,14.27
2022-10-23T01:22:48.067Z,14.26
2022-10-23T01:24:59.332Z,14.20
2022-10-23T01:27:16.359Z,14.17
2022-10-23T01:29:25.654Z,14.07
2022-10-23T01:31:35.939Z,14.10
2022-10-23T01:33:43.956Z,14.08
2022-10-23T01:35:50.413Z,14.05
2022-10-23T01:37:57.223Z,14.06
2022-10-23T01:40:06.737Z,14.05
2022-10-23T01:42:17.335Z,13.96
2022-10-23T01:44:24.834Z,13.91
2022-10-23T01:46:29.128Z,13.79
2022-10-23T01:48:35.698Z,13.84
2022-10-23T01:50:41.301Z,13.76
2022-10-23T01:52:45.675Z,13.74
2022-10-23T01:54:54.117Z,13.80
2022-10-23T01:56:59.412Z,13.77
2022-10-23T01:59:11.560Z,13.65
2022-10-23T02:01:19.434Z,13.72
2022-10-23T02:03:30.727Z,13.64
2022-10-23T02:05:34.503Z,13.76
2022-10-23T02:07:39.877Z,13.80
2022-10-23T02:09:43.579Z,13.47
2022-10-23T02:11:54.870Z,13.84
2022-10-23T02:14:04.773Z,13.91
2022-10-23T02:16:16.341Z,13.98
2022-10-23T02:18:32.666Z,14.05
2022-10-23T02:20:41.455Z,14.07
2022-10-23T02:22:52.912Z,14.07
2022-10-23T02:25:04.141Z,14.00
2022-10-23T02:27:13.344Z,14.05
2022-10-23T02:29:21.965Z,13.90
2022-10-23T02:31:26.978Z,14.02
2022-10-23T02:33:31.859Z,13.98
2022-10-23T02:35:35.333Z,13.94
2022-10-23T02:37:54.265Z,13.90
2022-10-23T02:40:01.384Z,13.90
2022-10-23T02:42:20.359Z,13.82
2022-10-23T02:44:37.379Z,13.82
2022-10-23T02:46:53.060Z,13.84
2022-10-23T02:49:08.655Z,13.86
2022-10-23T02:51:19.853Z,13.90
2022-10-23T02:53:31.605Z,13.92
2022-10-23T02:55:44.505Z,13.91
2022-10-23T02:57:54.955Z,13.90
2022-10-23T03:00:04.452Z,13.94
2022-10-23T03:02:18.001Z,13.99
2022-10-23T03:04:24.977Z,14.02
2022-10-23T03:06:28.734Z,14.08
2022-10-23T03:08:43.137Z,14.03
2022-10-23T03:10:46.518Z,13.99
2022-10-23T03:12:51.267Z,13.98
2022-10-23T03:14:55.133Z,13.95
2022-10-23T03:17:00.558Z,13.97
2022-10-23T03:19:05.571Z,14.00
2022-10-23T03:21:09.318Z,13.96
2022-10-23T03:23:14.303Z,13.94
2022-10-23T03:25:17.799Z,13.85
2022-10-23T03:27:22.708Z,13.99
2022-10-23T03:29:26.168Z,13.93
2022-10-23T03:31:29.594Z,13.90
2022-10-23T03:33:35.415Z,13.97
2022-10-23T03:37:51.844Z,14.09
2022-10-23T03:39:55.236Z,14.12
2022-10-23T03:41:58.894Z,14.13
2022-10-23T03:44:02.277Z,14.17
2022-10-23T03:46:09.160Z,14.08
2022-10-23T03:48:12.696Z,13.99
2022-10-23T03:50:16.200Z,13.96
2022-10-23T03:52:21.069Z,13.99
2022-10-23T03:54:29.716Z,13.99
2022-10-23T03:56:33.020Z,13.96
2022-10-23T03:58:36.486Z,13.95
2022-10-23T04:00:39.845Z,13.93
2022-10-23T04:02:44.843Z,13.97
2022-10-23T04:04:48.939Z,13.88
2022-10-23T04:06:52.586Z,13.90
2022-10-23T04:08:58.799Z,13.89
2022-10-23T04:11:02.254Z,13.91
2022-10-23T04:13:21.429Z,13.99
2022-10-23T04:15:24.795Z,14.07
2022-10-23T04:19:31.463Z,14.02
2022-10-23T04:21:35.110Z,13.91
2022-10-23T04:23:38.403Z,14.00
2022-10-23T04:28:00.030Z,13.94
2022-10-23T04:30:04.165Z,13.93
2022-10-23T04:32:08.394Z,14.00
2022-10-23T04:34:11.717Z,14.02
2022-10-23T04:36:15.150Z,13.95
2022-10-23T04:38:18.476Z,13.93
2022-10-23T04:40:21.959Z,13.95
2022-10-23T04:42:28.556Z,13.91
2022-10-23T04:44:34.258Z,13.95
2022-10-23T04:46:38.821Z,13.92
2022-10-23T04:48:42.425Z,13.86
2022-10-23T04:51:07.502Z,13.89
2022-10-23T04:53:29.944Z,13.92
2022-10-23T04:55:51.806Z,13.86
2022-10-23T04:58:19.473Z,13.77
2022-10-23T05:00:22.982Z,13.79
2022-10-23T05:02:30.105Z,13.81
2022-10-23T05:04:33.539Z,13.78
2022-10-23T05:07:03.169Z,13.73
2022-10-23T05:09:36.050Z,13.69
2022-10-23T05:11:51.609Z,13.70
2022-10-23T05:13:56.275Z,13.66
2022-10-23T05:15:59.758Z,13.64
2022-10-23T05:18:13.637Z,13.60
2022-10-23T05:20:20.823Z,13.55
2022-10-23T05:22:28.816Z,13.50
2022-10-23T05:24:32.148Z,13.51
2022-10-23T05:26:42.154Z,13.56
2022-10-23T05:28:47.113Z,13.61
2022-10-23T05:30:54.784Z,13.57
2022-10-23T05:33:03.843Z,13.57
2022-10-23T05:35:17.325Z,13.53
2022-10-23T05:37:23.971Z,13.49
2022-10-23T05:39:33.542Z,13.49
2022-10-23T05:41:38.439Z,13.49
2022-10-23T05:43:41.786Z,13.55
2022-10-23T05:46:15.403Z,13.55
2022-10-23T05:48:33.892Z,13.55
2022-10-23T05:50:56.671Z,13.51
2022-10-23T05:53:11.258Z,13.52
2022-10-23T05:55:26.863Z,13.57
2022-10-23T05:57:32.876Z,13.66
2022-10-23T05:59:39.805Z,13.67
2022-10-23T06:01:59.491Z,13.70
2022-10-23T06:04:23.103Z,13.75
2022-10-23T06:06:46.612Z,13.77
2022-10-23T06:08:50.322Z,13.81
2022-10-23T06:10:57.584Z,13.75
2022-10-23T06:13:00.907Z,13.76
2022-10-23T06:15:06.254Z,13.77
2022-10-23T06:17:33.683Z,13.76
2022-10-23T06:19:37.031Z,13.76
2022-10-23T06:21:41.213Z,13.74
2022-10-23T06:23:47.806Z,13.70
2022-10-23T06:26:07.058Z,13.72
2022-10-23T06:28:20.673Z,13.77
2022-10-23T06:30:25.337Z,13.82
2022-10-23T06:32:33.837Z,13.83
2022-10-23T06:34:55.379Z,13.83
2022-10-23T06:36:58.747Z,13.88
2022-10-23T06:39:37.179Z,13.88
2022-10-23T06:41:49.292Z,13.91
2022-10-23T06:44:12.459Z,13.95
2022-10-23T06:46:20.363Z,13.96
2022-10-23T06:48:44.504Z,13.91
2022-10-23T06:50:55.781Z,13.98
2022-10-23T06:53:09.997Z,13.98
2022-10-23T06:55:17.161Z,13.99
2022-10-23T06:57:20.559Z,14.02
2022-10-23T06:59:26.448Z,14.04
2022-10-23T07:01:30.579Z,13.93
2022-10-23T07:03:34.742Z,14.12
2022-10-23T07:05:44.734Z,14.18
2022-10-23T07:07:49.467Z,14.15
2022-10-23T07:09:59.467Z,14.10
2022-10-23T07:12:14.589Z,14.13
2022-10-23T07:14:23.901Z,14.15
2022-10-23T07:16:27.510Z,14.19
2022-10-23T07:18:31.800Z,14.19
2022-10-23T07:20:59.927Z,14.21
2022-10-23T07:23:04.745Z,14.24
2022-10-23T07:25:13.183Z,14.28
2022-10-23T07:27:17.421Z,14.27
2022-10-23T07:29:21.563Z,14.31
2022-10-23T07:31:28.194Z,14.30
2022-10-23T07:33:50.810Z,14.37
2022-10-23T07:35:55.857Z,14.38
2022-10-23T07:38:05.198Z,14.42
2022-10-23T07:40:13.576Z,14.51
2022-10-23T07:42:20.682Z,14.52
2022-10-23T07:44:27.655Z,14.59
2022-10-23T07:46:32.065Z,14.66
2022-10-23T07:48:35.562Z,14.70
2022-10-23T07:50:39.559Z,14.78
2022-10-23T07:52:43.223Z,14.87
2022-10-23T07:54:53.395Z,14.90
2022-10-23T07:56:57.542Z,14.98
2022-10-23T07:59:12.584Z,15.04
2022-10-23T08:01:20.199Z,15.08
2022-10-23T08:03:24.105Z,15.15
2022-10-23T08:05:27.479Z,15.20
2022-10-23T08:07:35.696Z,15.26
2022-10-23T08:09:39.085Z,15.36
2022-10-23T08:11:44.120Z,15.41
2022-10-23T08:13:51.609Z,15.56
2022-10-23T08:15:55.947Z,15.67
2022-10-23T08:18:19.453Z,15.69
2022-10-23T08:20:22.933Z,15.72
2022-10-23T08:22:26.402Z,15.86
2022-10-23T08:24:29.831Z,15.92
2022-10-23T08:26:33.567Z,15.99
2022-10-23T08:28:38.631Z,16.04
2022-10-23T08:30:42.105Z,16.02
2022-10-23T08:32:45.728Z,16.07
2022-10-23T08:34:50.195Z,16.07
2022-10-23T08:36:54.086Z,16.11
2022-10-23T08:38:58.959Z,16.14
2022-10-23T08:41:03.741Z,16.19
2022-10-23T08:43:35.426Z,16.27
2022-10-23T08:45:59.555Z,16.35
2022-10-23T08:48:27.119Z,16.26
2022-10-23T08:51:01.621Z,16.29
2022-10-23T08:53:12.647Z,16.22
2022-10-23T08:55:18.994Z,16.33
2022-10-23T08:57:26.700Z,16.33
2022-10-23T08:59:37.974Z,16.29
2022-10-23T09:01:46.966Z,16.29
2022-10-23T09:03:50.450Z,16.35
2022-10-23T09:06:05.902Z,16.30
2022-10-23T09:08:23.799Z,16.29
2022-10-23T09:10:38.831Z,16.48
2022-10-23T09:12:43.316Z,16.55
2022-10-23T09:15:15.970Z,16.72
2022-10-23T09:17:28.341Z,16.86
2022-10-23T09:19:32.082Z,16.97
2022-10-23T09:21:37.347Z,16.94
2022-10-23T09:23:40.926Z,17.15
2022-10-23T09:25:45.730Z,17.31
2022-10-23T09:27:53.224Z,17.34
2022-10-23T09:29:59.408Z,17.24
2022-10-23T09:32:05.117Z,17.27
2022-10-23T09:34:21.767Z,17.27
2022-10-23T09:36:29.007Z,17.10
2022-10-23T09:38:35.377Z,17.24
2022-10-23T09:40:41.807Z,17.29
2022-10-23T09:42:53.708Z,17.37
2022-10-23T09:44:57.828Z,17.59
2022-10-23T09:47:11.984Z,17.48
2022-10-23T09:49:22.737Z,17.56
2022-10-23T09:51:26.161Z,17.55
2022-10-23T09:53:35.519Z,17.53
2022-10-23T09:55:39.197Z,17.58
2022-10-23T09:57:45.000Z,17.62
2022-10-23T09:59:53.882Z,17.62
2022-10-23T10:01:59.865Z,17.54
2022-10-23T10:04:37.314Z,17.52
2022-10-23T10:08:50.041Z,17.48
2022-10-23T10:10:56.641Z,17.62
2022-10-23T10:13:11.954Z,17.59
2022-10-23T10:15:27.826Z,17.71
2022-10-23T10:17:39.182Z,17.72
2022-10-23T10:20:05.278Z,17.77
2022-10-23T10:22:22.720Z,17.75
2022-10-23T10:24:33.381Z,17.82
2022-10-23T10:26:45.325Z,17.87
2022-10-23T10:29:01.000Z,17.87
2022-10-23T10:31:15.859Z,17.87
2022-10-23T10:33:26.539Z,17.92
2022-10-23T10:35:43.891Z,17.61
2022-10-23T10:38:02.908Z,17.97
2022-10-23T10:40:17.456Z,17.98
2022-10-23T10:42:38.686Z,18.06
2022-10-23T10:44:52.834Z,18.02
2022-10-23T10:47:00.383Z,18.00
2022-10-23T10:49:17.626Z,17.93
2022-10-23T10:51:54.539Z,17.93
2022-10-23T10:54:13.326Z,17.99
2022-10-23T10:56:19.785Z,17.97
2022-10-23T10:58:31.274Z,17.97
2022-10-23T11:00:35.375Z,17.98
2022-10-23T11:02:45.465Z,17.97
2022-10-23T11:04:53.789Z,17.98
2022-10-23T11:07:00.791Z,18.03
2022-10-23T11:09:20.619Z,17.98
2022-10-23T11:11:29.939Z,18.00
2022-10-23T11:13:36.984Z,17.96
2022-10-23T11:15:43.944Z,17.98
2022-10-23T11:17:51.866Z,17.93
2022-10-23T11:20:03.665Z,17.88
2022-10-23T11:22:13.328Z,17.84
2022-10-23T11:24:58.699Z,17.53
2022-10-23T11:27:31.010Z,17.76
2022-10-23T11:29:51.662Z,17.75
2022-10-23T11:32:08.325Z,17.81
2022-10-23T11:34:39.344Z,17.66
2022-10-23T11:36:47.804Z,17.37
2022-10-23T11:38:53.797Z,17.46
2022-10-23T11:41:00.883Z,17.39
2022-10-23T11:43:04.284Z,17.39
2022-10-23T11:45:29.724Z,17.38
2022-10-23T11:47:39.644Z,17.24
2022-10-23T11:49:43.772Z,17.53
2022-10-23T11:51:47.072Z,17.65
2022-10-23T11:53:51.999Z,17.74
2022-10-23T11:56:06.612Z,18.03
2022-10-23T11:58:31.454Z,18.44
2022-10-23T12:00:36.399Z,18.68
2022-10-23T12:02:43.373Z,18.78
2022-10-23T12:04:49.862Z,18.76
2022-10-23T12:06:56.742Z,18.72
2022-10-23T12:09:05.909Z,18.79
2022-10-23T12:11:27.765Z,18.73
2022-10-23T12:13:45.403Z,18.78
2022-10-23T12:15:57.134Z,18.75
2022-10-23T12:18:15.507Z,18.80
2022-10-23T12:20:37.830Z,18.81
2022-10-23T12:22:48.373Z,18.77
2022-10-23T12:25:04.322Z,18.78
2022-10-23T12:27:17.660Z,18.58
2022-10-23T12:29:35.904Z,18.63
2022-10-23T12:31:52.365Z,18.55
2022-10-23T12:34:06.469Z,18.58
2022-10-23T12:36:23.779Z,18.66
2022-10-23T12:38:33.870Z,18.75
2022-10-23T12:40:41.047Z,18.78
2022-10-23T12:42:52.228Z,18.69
2022-10-23T12:45:00.157Z,18.59
2022-10-23T12:47:05.058Z,18.66
2022-10-23T12:49:15.722Z,18.59
2022-10-23T12:51:24.513Z,18.58
2022-10-23T12:53:27.819Z,18.60
2022-10-23T12:55:46.596Z,18.52
2022-10-23T12:57:51.938Z,18.61
2022-10-23T12:59:58.908Z,18.56
2022-10-23T13:02:02.421Z,18.50
2022-10-23T13:04:13.525Z,18.49
2022-10-23T13:06:17.268Z,18.52
2022-10-23T13:08:22.705Z,18.47
2022-10-23T13:10:46.668Z,18.40
2022-10-23T13:12:59.290Z,18.43
2022-10-23T13:15:14.950Z,18.45
2022-10-23T13:17:18.254Z,18.31
2022-10-23T13:19:26.935Z,18.43
2022-10-23T13:21:32.423Z,18.41
2022-10-23T13:23:37.066Z,18.31
2022-10-23T13:25:41.241Z,18.42
2022-10-23T13:27:44.968Z,18.40
2022-10-23T13:29:49.816Z,18.41
2022-10-23T13:31:53.413Z,18.38
2022-10-23T13:34:23.297Z,18.42
2022-10-23T13:36:30.113Z,18.53
2022-10-23T13:38:39.533Z,18.48
2022-10-23T13:40:44.457Z,18.43
2022-10-23T13:42:49.668Z,18.42
2022-10-23T13:44:54.361Z,18.39
2022-10-23T13:46:57.701Z,18.43
2022-10-23T13:49:01.144Z,18.42
2022-10-23T13:51:13.610Z,18.45
2022-10-23T13:53:17.303Z,18.45
2022-10-23T13:55:24.106Z,18.47
2022-10-23T13:57:27.478Z,18.43
2022-10-23T13:59:30.822Z,18.45
2022-10-23T14:01:36.363Z,18.42
2022-10-23T14:03:39.729Z,18.41
2022-10-23T14:05:43.045Z,18.43
2022-10-23T14:07:46.914Z,18.42
2022-10-23T14:09:50.700Z,18.41
2022-10-23T14:11:54.120Z,18.36
2022-10-23T14:13:57.503Z,18.38
2022-10-23T14:16:00.989Z,18.39
2022-10-23T14:18:08.257Z,18.25
2022-10-23T14:20:12.850Z,18.39
2022-10-23T14:22:16.177Z,18.38
2022-10-23T14:24:19.549Z,18.39
2022-10-23T14:26:27.508Z,18.41
2022-10-23T14:28:30.900Z,18.42
2022-10-23T14:30:34.270Z,18.45
2022-10-23T14:32:37.592Z,18.44
2022-10-23T14:34:45.799Z,18.42
2022-10-23T14:36:50.328Z,18.43
2022-10-23T14:39:00.487Z,18.51
2022-10-23T14:41:10.170Z,18.46
2022-10-23T14:43:13.482Z,18.47
2022-10-23T14:45:17.069Z,18.40
2022-10-23T14:47:20.709Z,18.37
2022-10-23T14:49:24.176Z,18.33
2022-10-23T14:51:30.862Z,18.04
2022-10-23T14:53:34.212Z,18.31
2022-10-23T14:55:37.573Z,18.28
2022-10-23T14:57:41.069Z,18.25
2022-10-23T14:59:45.057Z,18.24
2022-10-23T15:01:48.808Z,18.24
2022-10-23T15:03:55.790Z,18.23
2022-10-23T15:05:59.117Z,18.19
2022-10-23T15:08:03.755Z,18.16
2022-10-23T15:10:09.083Z,18.20
2022-10-23T15:12:12.622Z,18.21
2022-10-23T15:14:15.949Z,18.18
2022-10-23T15:16:19.404Z,18.19
2022-10-23T15:18:22.720Z,18.18
2022-10-23T15:20:26.106Z,18.21
2022-10-23T15:22:29.497Z,18.21
2022-10-23T15:24:34.201Z,18.22
2022-10-23T15:26:38.388Z,18.23
2022-10-23T15:28:41.702Z,18.27
2022-10-23T15:30:45.602Z,18.23
2022-10-23T15:32:48.975Z,18.20
2022-10-23T15:34:53.712Z,18.11
2022-10-23T15:36:58.598Z,18.06
2022-10-23T15:39:02.603Z,18.07
2022-10-23T15:41:16.609Z,18.08
2022-10-23T15:43:19.982Z,17.82
2022-10-23T15:45:25.567Z,17.99
2022-10-23T15:47:31.479Z,18.01
2022-10-23T15:49:35.001Z,18.00
2022-10-23T15:51:39.251Z,17.93
2022-10-23T15:53:42.526Z,17.92
2022-10-23T15:55:46.044Z,17.88
2022-10-23T15:57:50.941Z,17.92
2022-10-23T15:59:54.309Z,17.86
2022-10-23T16:01:58.740Z,17.87
2022-10-23T16:04:02.100Z,17.81
2022-10-23T16:06:06.309Z,17.87
2022-10-23T16:08:09.770Z,17.72
2022-10-23T16:10:13.096Z,17.78
2022-10-23T16:12:17.127Z,17.76
2022-10-23T16:14:21.788Z,17.75
2022-10-23T16:16:25.892Z,17.81
2022-10-23T16:18:29.839Z,17.63
2022-10-23T16:20:33.127Z,17.91
2022-10-23T16:22:39.028Z,17.95
2022-10-23T16:24:43.718Z,17.96
2022-10-23T16:26:51.731Z,17.97
2022-10-23T16:28:55.938Z,17.98
2022-10-23T16:31:00.911Z,17.94
2022-10-23T16:33:04.438Z,17.93
2022-10-23T16:35:11.009Z,17.87
2022-10-23T16:37:28.211Z,17.74
2022-10-23T16:39:37.631Z,17.74
2022-10-23T16:42:10.146Z,17.56
2022-10-23T16:44:34.973Z,17.49
2022-10-23T16:46:42.733Z,17.41
2022-10-23T16:48:46.354Z,17.35
2022-10-23T16:50:49.664Z,17.31
2022-10-23T16:52:55.514Z,17.35
2022-10-23T16:54:59.433Z,17.30
2022-10-23T16:57:02.875Z,17.22
2022-10-23T16:59:06.507Z,17.25
2022-10-23T17:01:13.622Z,17.33
2022-10-23T17:03:18.524Z,17.21
2022-10-23T17:05:21.838Z,17.11
2022-10-23T17:07:25.173Z,16.89
2022-10-23T17:09:31.169Z,16.74
2022-10-23T17:11:36.872Z,16.64
2022-10-23T17:13:43.581Z,16.56
2022-10-23T17:15:46.904Z,16.58
2022-10-23T17:17:50.412Z,16.61
2022-10-23T17:19:55.166Z,16.25
2022-10-23T17:22:00.856Z,16.51
2022-10-23T17:24:05.115Z,16.57
2022-10-23T17:26:09.692Z,16.50
2022-10-23T17:28:13.026Z,16.49
2022-10-23T17:30:16.355Z,16.54
2022-10-23T17:34:24.885Z,16.41
2022-10-23T17:36:31.401Z,16.45
2022-10-23T17:38:36.886Z,16.42
2022-10-23T17:40:40.824Z,16.39
2022-10-23T17:42:44.376Z,16.37
2022-10-23T17:44:48.075Z,16.26
2022-10-23T17:46:53.767Z,16.28
2022-10-23T17:48:59.277Z,16.26
2022-10-23T17:51:04.314Z,16.33
2022-10-23T17:53:09.098Z,16.33
2022-10-23T17:55:12.530Z,16.35
2022-10-23T17:57:15.846Z,16.33
2022-10-23T17:59:19.963Z,16.36
2022-10-23T18:01:26.319Z,16.35
2022-10-23T18:03:29.898Z,16.34
2022-10-23T18:05:33.850Z,16.31
2022-10-23T18:07:37.206Z,16.27
2022-10-23T18:09:41.945Z,16.26
2022-10-23T18:11:48.454Z,16.30
2022-10-23T18:13:53.033Z,16.30
2022-10-23T18:15:56.378Z,16.34
2022-10-23T18:17:59.705Z,16.31
2022-10-23T18:20:03.094Z,16.29
2022-10-23T18:22:06.693Z,16.26
2022-10-23T18:24:10.790Z,16.26
2022-10-23T18:26:17.742Z,16.26
2022-10-23T18:28:21.116Z,16.28
2022-10-23T18:30:24.394Z,16.22
2022-10-23T18:32:27.866Z,16.22
2022-10-23T18:34:31.194Z,16.26
2022-10-23T18:36:36.762Z,16.26
2022-10-23T18:38:40.103Z,16.24
2022-10-23T18:40:44.902Z,16.25
2022-10-23T18:42:50.252Z,16.20
2022-10-23T18:44:53.697Z,16.22
2022-10-23T18:46:57.521Z,16.25
2022-10-23T18:49:00.926Z,16.23
2022-10-23T18:51:04.478Z,16.18
2022-10-23T18:53:08.038Z,16.20
2022-10-23T18:55:12.853Z,16.07
2022-10-23T18:57:16.215Z,16.13
2022-10-23T18:59:22.255Z,16.13
2022-10-23T19:01:27.470Z,16.11
2022-10-23T19:03:33.026Z,16.11
2022-10-23T19:05:36.359Z,16.10
2022-10-23T19:07:44.870Z,16.00
2022-10-23T19:09:48.674Z,16.12
2022-10-23T19:11:52.055Z,16.12
2022-10-23T19:13:55.423Z,16.12
2022-10-23T19:16:00.369Z,16.16
2022-10-23T19:18:06.654Z,16.20
2022-10-23T19:20:14.820Z,16.18
2022-10-23T19:22:18.828Z,16.18
2022-10-23T19:24:28.670Z,16.18
2022-10-23T19:26:35.459Z,16.15
2022-10-23T19:28:40.620Z,16.09
2022-10-23T19:30:44.151Z,16.08
2022-10-23T19:32:49.507Z,16.04
2022-10-23T19:34:52.861Z,16.05
2022-10-23T19:36:56.336Z,16.01
2022-10-23T19:38:59.739Z,15.95
2022-10-23T19:41:03.812Z,15.92
2022-10-23T19:43:07.166Z,15.95
2022-10-23T19:45:12.696Z,15.89
2022-10-23T19:47:16.109Z,15.83
2022-10-23T19:49:23.749Z,15.83
2022-10-23T19:51:29.571Z,15.85
2022-10-23T19:53:33.683Z,15.84
2022-10-23T19:55:37.322Z,15.71
2022-10-23T19:57:40.808Z,15.81
2022-10-23T19:59:44.405Z,15.80
2022-10-23T20:01:49.408Z,15.79
2022-10-23T20:03:55.350Z,15.77
2022-10-23T20:06:00.090Z,15.74
2022-10-23T20:08:03.423Z,15.74
2022-10-23T20:10:08.314Z,15.70
2022-10-23T20:12:11.683Z,15.71
2022-10-23T20:14:14.992Z,15.73
2022-10-23T20:16:19.771Z,15.71
2022-10-23T20:18:25.971Z,15.71
2022-10-23T20:20:29.244Z,15.72
2022-10-23T20:22:33.911Z,15.71
2022-10-23T20:24:37.380Z,15.69
2022-10-23T20:26:41.742Z,15.70
2022-10-23T20:28:47.025Z,15.73
2022-10-23T20:30:50.417Z,15.76
2022-10-23T20:32:53.739Z,15.74
2022-10-23T20:34:57.075Z,15.80
2022-10-23T20:37:00.627Z,15.83
2022-10-23T20:39:07.084Z,15.82
2022-10-23T20:41:10.408Z,15.82
2022-10-23T20:43:13.856Z,15.75
2022-10-23T20:45:17.212Z,15.89
2022-10-23T20:47:21.084Z,16.00
2022-10-23T20:49:25.028Z,16.08
2022-10-23T20:51:28.527Z,16.10
2022-10-23T20:53:31.862Z,16.12
2022-10-23T20:55:41.067Z,16.13
2022-10-23T20:57:44.673Z,16.21
2022-10-23T20:59:48.288Z,16.19
2022-10-23T21:01:53.880Z,16.24
2022-10-23T21:03:58.855Z,16.33
2022-10-23T21:06:06.418Z,16.39
2022-10-23T21:08:09.804Z,16.40
2022-10-23T21:10:13.107Z,16.42
2022-10-23T21:12:17.885Z,16.47
2022-10-23T21:14:21.218Z,16.40
2022-10-23T21:16:28.542Z,16.33
2022-10-23T21:18:45.620Z,16.32
2022-10-23T21:20:50.235Z,16.37
2022-10-23T21:22:55.394Z,16.41
2022-10-23T21:25:00.525Z,16.45
2022-10-23T21:27:03.838Z,16.46
2022-10-23T21:29:21.112Z,16.49
2022-10-23T21:31:25.431Z,16.48
2022-10-23T21:33:29.634Z,16.48
2022-10-23T21:35:33.116Z,16.50
2022-10-23T21:37:36.537Z,16.50
2022-10-23T21:39:39.956Z,16.47
2022-10-23T21:41:43.280Z,16.47
2022-10-23T21:43:47.286Z,16.45
2022-10-23T21:45:54.348Z,16.45
2022-10-23T21:47:58.880Z,16.44
2022-10-23T21:50:02.181Z,16.46
2022-10-23T21:52:05.530Z,16.46
2022-10-23T21:54:12.728Z,16.13
2022-10-23T21:56:26.428Z,16.43
2022-10-23T21:58:29.916Z,16.41
2022-10-23T22:00:33.211Z,16.39
2022-10-23T22:02:38.006Z,16.35
2022-10-23T22:04:41.705Z,16.34
2022-10-23T22:06:45.917Z,16.34
2022-10-23T22:08:49.358Z,16.28
2022-10-23T22:10:52.673Z,16.32
2022-10-23T22:12:56.045Z,16.28
2022-10-23T22:14:59.801Z,16.30
2022-10-23T22:17:03.863Z,16.32
2022-10-23T22:19:11.538Z,16.32
2022-10-23T22:21:18.873Z,16.35
2022-10-23T22:23:22.258Z,16.33
2022-10-23T22:25:25.589Z,16.35
2022-10-23T22:27:29.316Z,16.34
2022-10-23T22:29:33.151Z,16.24
2022-10-23T22:31:37.452Z,16.34
2022-10-23T22:33:40.826Z,16.35
2022-10-23T22:35:45.460Z,16.35
2022-10-23T22:37:48.805Z,16.36
2022-10-23T22:39:52.833Z,16.37
2022-10-23T22:41:56.131Z,16.38
2022-10-23T22:44:00.433Z,16.43
2022-10-23T22:46:05.408Z,16.42
2022-10-23T22:48:09.198Z,16.40
2022-10-23T22:50:12.578Z,16.36
2022-10-23T22:52:17.181Z,16.37
2022-10-23T22:54:20.490Z,16.38
2022-10-23T22:56:25.983Z,16.36
2022-10-23T22:58:29.295Z,16.33
2022-10-23T23:00:32.739Z,16.30
2022-10-23T23:02:36.046Z,16.29
2022-10-23T23:04:39.681Z,16.22
2022-10-23T23:06:43.096Z,16.27
2022-10-23T23:08:48.782Z,16.24
2022-10-23T23:10:56.190Z,16.24
2022-10-23T23:12:59.560Z,16.22
2022-10-23T23:15:02.828Z,16.22
2022-10-23T23:17:07.539Z,16.23
2022-10-23T23:19:12.283Z,16.21
2022-10-23T23:21:16.414Z,16.21
2022-10-23T23:23:20.120Z,16.21
2022-10-23T23:25:24.730Z,16.21
2022-10-23T23:27:28.132Z,16.22
2022-10-23T23:29:31.469Z,16.27
2022-10-23T23:31:34.767Z,16.26
2022-10-23T23:33:38.205Z,16.24
2022-10-23T23:35:42.143Z,16.29
2022-10-23T23:37:45.874Z,16.34
2022-10-23T23:39:49.167Z,16.42
2022-10-23T23:41:53.971Z,16.41
2022-10-23T23:43:59.484Z,16.38
2022-10-23T23:46:02.920Z,16.35
2022-10-23T23:48:07.878Z,16.36
2022-10-23T23:50:12.532Z,16.30
2022-10-23T23:52:15.800Z,16.28
2022-10-23T23:54:19.226Z,16.32
2022-10-23T23:56:22.851Z,16.31
2022-10-23T23:58:27.495Z,16.00
